createdAt,value
2022-09-22T00:01:00.773Z,20.60
2022-09-22T00:03:35.135Z,20.60
2022-09-22T00:06:07.140Z,20.60
2022-09-22T00:08:35.913Z,20.60
2022-09-22T00:11:06.045Z,20.50
2022-09-22T00:13:33.501Z,20.60
2022-09-22T00:16:01.363Z,20.50
2022-09-22T00:18:29.133Z,20.50
2022-09-22T00:20:56.328Z,20.50
2022-09-22T00:23:26.469Z,20.50
2022-09-22T00:25:53.561Z,20.60
2022-09-22T00:28:21.808Z,20.50
2022-09-22T00:30:48.952Z,20.50
2022-09-22T00:33:16.011Z,20.60
2022-09-22T00:35:43.065Z,20.50
2022-09-22T00:38:10.272Z,20.50
2022-09-22T00:40:37.947Z,20.50
2022-09-22T00:43:12.181Z,20.50
2022-09-22T00:45:39.376Z,20.50
2022-09-22T00:48:06.401Z,20.40
2022-09-22T00:50:33.549Z,20.40
2022-09-22T00:53:03.405Z,20.40
2022-09-22T00:55:32.241Z,20.40
2022-09-22T00:58:00.368Z,20.40
2022-09-22T01:00:27.515Z,20.40
2022-09-22T01:02:57.050Z,20.40
2022-09-22T01:05:24.833Z,20.40
2022-09-22T01:07:52.084Z,20.40
2022-09-22T01:10:19.297Z,20.40
2022-09-22T01:12:51.967Z,20.40
2022-09-22T01:15:22.296Z,20.40
2022-09-22T01:18:10.741Z,20.40
2022-09-22T01:20:46.954Z,20.40
2022-09-22T01:23:34.264Z,20.40
2022-09-22T01:26:20.000Z,20.40
2022-09-22T01:29:01.792Z,20.40
2022-09-22T01:31:37.293Z,20.40
2022-09-22T01:34:24.640Z,20.40
2022-09-22T01:36:54.389Z,20.40
2022-09-22T01:39:24.959Z,20.40
2022-09-22T01:41:52.062Z,20.40
2022-09-22T01:44:25.246Z,20.40
2022-09-22T01:47:05.611Z,20.30
2022-09-22T01:49:35.170Z,20.30
2022-09-22T01:52:06.806Z,20.30
2022-09-22T01:54:37.426Z,20.30
2022-09-22T01:57:19.454Z,20.30
2022-09-22T01:59:51.755Z,20.30
2022-09-22T02:02:40.675Z,20.30
2022-09-22T02:05:10.466Z,20.30
2022-09-22T02:07:40.561Z,20.30
2022-09-22T02:10:09.742Z,20.30
2022-09-22T02:12:37.309Z,20.30
2022-09-22T02:15:05.424Z,20.30
2022-09-22T02:17:35.185Z,20.30
2022-09-22T02:20:04.828Z,20.30
2022-09-22T02:22:32.593Z,20.30
2022-09-22T02:24:59.578Z,20.20
2022-09-22T02:27:35.534Z,20.20
2022-09-22T02:30:10.707Z,20.20
2022-09-22T02:32:39.420Z,20.20
2022-09-22T02:35:07.692Z,20.20
2022-09-22T02:37:39.945Z,20.20
2022-09-22T02:40:25.575Z,20.20
2022-09-22T02:43:01.637Z,20.20
2022-09-22T02:45:48.186Z,20.20
2022-09-22T02:48:17.851Z,20.20
2022-09-22T02:50:44.963Z,20.10
2022-09-22T02:53:13.456Z,20.20
2022-09-22T02:55:40.612Z,20.20
2022-09-22T02:58:07.963Z,20.10
2022-09-22T03:00:36.006Z,20.20
2022-09-22T03:03:03.660Z,20.10
2022-09-22T03:05:30.909Z,20.10
2022-09-22T03:07:58.001Z,20.20
2022-09-22T03:10:25.021Z,20.20
2022-09-22T03:13:14.957Z,20.10
2022-09-22T03:15:39.137Z,20.10
2022-09-22T03:18:06.248Z,20.10
2022-09-22T03:20:33.301Z,20.10
2022-09-22T03:23:00.345Z,20.10
2022-09-22T03:25:27.546Z,20.10
2022-09-22T03:27:54.546Z,20.10
2022-09-22T03:30:21.666Z,20.10
2022-09-22T03:32:48.673Z,20.10
2022-09-22T03:35:15.761Z,20.10
2022-09-22T03:37:42.902Z,20.10
2022-09-22T03:40:10.173Z,20.10
2022-09-22T03:42:37.266Z,20.10
2022-09-22T03:45:05.250Z,20.10
2022-09-22T03:47:32.474Z,20.00
2022-09-22T03:49:59.509Z,20.00
2022-09-22T03:52:27.291Z,20.10
2022-09-22T03:54:54.422Z,20.10
2022-09-22T03:57:21.659Z,20.10
2022-09-22T03:59:48.811Z,20.20
2022-09-22T04:02:16.298Z,20.40
2022-09-22T04:04:43.456Z,20.60
2022-09-22T04:07:10.567Z,20.90
2022-09-22T04:09:37.616Z,21.10
2022-09-22T04:12:04.845Z,21.20
2022-09-22T04:14:31.928Z,21.30
2022-09-22T04:16:59.044Z,21.40
2022-09-22T04:19:26.290Z,21.50
2022-09-22T04:21:57.192Z,21.50
2022-09-22T04:24:24.878Z,21.50
2022-09-22T04:27:15.539Z,21.50
2022-09-22T04:29:39.465Z,21.50
2022-09-22T04:32:06.509Z,21.50
2022-09-22T04:34:33.577Z,21.40
2022-09-22T04:37:00.752Z,21.40
2022-09-22T04:39:28.740Z,21.40
2022-09-22T04:41:56.011Z,21.40
2022-09-22T04:44:23.061Z,21.40
2022-09-22T04:46:50.364Z,21.40
2022-09-22T04:49:17.759Z,21.30
2022-09-22T04:51:45.066Z,21.40
2022-09-22T04:54:13.452Z,21.30
2022-09-22T04:56:43.949Z,21.30
2022-09-22T04:59:11.867Z,21.20
2022-09-22T05:01:39.252Z,21.20
2022-09-22T05:04:06.423Z,21.20
2022-09-22T05:06:33.500Z,21.10
2022-09-22T05:09:00.662Z,21.20
2022-09-22T05:11:27.997Z,21.10
2022-09-22T05:13:56.058Z,21.10
2022-09-22T05:16:23.370Z,21.00
2022-09-22T05:18:50.602Z,21.10
2022-09-22T05:21:18.751Z,21.10
2022-09-22T05:23:45.985Z,21.10
2022-09-22T05:26:13.125Z,21.00
2022-09-22T05:28:40.811Z,21.00
2022-09-22T05:31:07.833Z,21.00
2022-09-22T05:33:34.997Z,21.00
2022-09-22T05:36:02.538Z,21.00
2022-09-22T05:38:29.712Z,20.90
2022-09-22T05:40:56.760Z,20.90
2022-09-22T05:43:23.825Z,21.00
2022-09-22T05:45:50.982Z,20.90
2022-09-22T05:48:18.132Z,20.90
2022-09-22T05:50:45.487Z,20.90
2022-09-22T05:53:13.238Z,20.90
2022-09-22T05:55:40.600Z,20.90
2022-09-22T05:58:09.903Z,20.90
2022-09-22T06:00:37.028Z,20.90
2022-09-22T06:03:04.582Z,20.90
2022-09-22T06:05:31.712Z,20.90
2022-09-22T06:08:00.761Z,20.90
2022-09-22T06:10:28.211Z,20.90
2022-09-22T06:13:02.092Z,20.90
2022-09-22T06:15:29.549Z,20.90
2022-09-22T06:17:56.633Z,20.90
2022-09-22T06:20:24.053Z,20.90
2022-09-22T06:22:51.120Z,21.00
2022-09-22T06:25:18.166Z,20.90
2022-09-22T06:27:45.713Z,20.90
2022-09-22T06:30:13.672Z,20.90
2022-09-22T06:32:40.819Z,20.90
2022-09-22T06:35:08.246Z,20.90
2022-09-22T06:37:39.034Z,20.70
2022-09-22T06:40:08.244Z,19.90
2022-09-22T06:42:35.858Z,19.80
2022-09-22T06:45:04.654Z,20.00
2022-09-22T06:47:32.961Z,20.30
2022-09-22T06:50:02.284Z,20.60
2022-09-22T06:52:29.380Z,20.80
2022-09-22T06:55:00.751Z,21.00
2022-09-22T06:57:32.662Z,21.10
2022-09-22T07:00:01.077Z,21.20
2022-09-22T07:02:29.496Z,21.20
2022-09-22T07:04:59.590Z,21.20
2022-09-22T07:07:28.160Z,21.20
2022-09-22T07:09:55.441Z,21.20
2022-09-22T07:12:22.560Z,21.20
2022-09-22T07:14:49.628Z,21.20
2022-09-22T07:17:16.657Z,21.20
2022-09-22T07:19:44.033Z,21.20
2022-09-22T07:22:12.805Z,21.20
2022-09-22T07:24:40.185Z,21.20
2022-09-22T07:27:07.431Z,21.20
2022-09-22T07:29:34.554Z,21.20
2022-09-22T07:32:02.860Z,21.20
2022-09-22T07:34:30.084Z,21.20
2022-09-22T07:36:59.278Z,21.20
2022-09-22T07:39:26.426Z,21.20
2022-09-22T07:41:53.770Z,21.20
2022-09-22T07:44:43.721Z,21.20
2022-09-22T07:47:11.740Z,21.20
2022-09-22T07:49:38.816Z,21.30
2022-09-22T07:52:06.105Z,21.30
2022-09-22T07:54:36.821Z,21.30
2022-09-22T07:57:06.525Z,21.30
2022-09-22T07:59:35.014Z,21.30
2022-09-22T08:02:02.400Z,21.30
2022-09-22T08:04:31.969Z,21.20
2022-09-22T08:06:59.894Z,21.30
2022-09-22T08:09:28.401Z,21.30
2022-09-22T08:11:57.093Z,21.30
2022-09-22T08:14:24.844Z,21.30
2022-09-22T08:16:53.482Z,21.20
2022-09-22T08:19:22.509Z,21.20
2022-09-22T08:21:51.340Z,21.20
2022-09-22T08:24:21.395Z,21.20
2022-09-22T08:26:53.043Z,21.20
2022-09-22T08:29:22.385Z,21.30
2022-09-22T08:31:51.305Z,21.30
2022-09-22T08:34:18.814Z,21.20
2022-09-22T08:36:48.733Z,21.20
2022-09-22T08:39:17.176Z,21.10
2022-09-22T08:42:05.963Z,21.20
2022-09-22T08:44:50.564Z,21.20
2022-09-22T08:47:40.084Z,21.30
2022-09-22T08:50:38.500Z,21.30
2022-09-22T08:53:08.950Z,21.30
2022-09-22T08:55:36.841Z,21.30
2022-09-22T08:58:21.214Z,21.30
2022-09-22T09:00:53.429Z,21.30
2022-09-22T09:03:32.801Z,21.30
2022-09-22T09:06:05.443Z,21.40
2022-09-22T09:08:32.506Z,21.40
2022-09-22T09:11:11.816Z,21.30
2022-09-22T09:13:40.500Z,21.40
2022-09-22T09:16:26.373Z,21.40
2022-09-22T09:18:56.688Z,21.40
2022-09-22T09:21:24.825Z,21.40
2022-09-22T09:26:41.229Z,21.40
2022-09-22T09:29:13.920Z,21.40
2022-09-22T09:31:48.928Z,21.40
2022-09-22T09:34:17.987Z,21.40
2022-09-22T09:36:49.290Z,21.40
2022-09-22T09:39:28.356Z,21.30
2022-09-22T09:41:56.153Z,21.30
2022-09-22T09:44:31.394Z,21.30
2022-09-22T09:47:05.160Z,21.30
2022-09-22T09:49:32.346Z,21.30
2022-09-22T09:52:03.997Z,21.40
2022-09-22T09:54:31.127Z,21.40
2022-09-22T09:57:09.259Z,21.40
2022-09-22T09:59:56.362Z,21.40
2022-09-22T10:02:39.555Z,21.40
2022-09-22T10:05:19.019Z,21.40
2022-09-22T10:07:48.032Z,21.40
2022-09-22T10:10:32.770Z,21.40
2022-09-22T10:13:05.967Z,21.40
2022-09-22T10:15:34.398Z,21.40
2022-09-22T10:18:02.086Z,21.40
2022-09-22T10:20:31.456Z,21.40
2022-09-22T10:23:18.834Z,21.40
2022-09-22T10:25:46.078Z,21.40
2022-09-22T10:28:14.218Z,21.30
2022-09-22T10:30:43.052Z,21.40
2022-09-22T10:33:22.798Z,21.30
2022-09-22T10:35:58.952Z,21.40
2022-09-22T10:38:29.616Z,21.40
2022-09-22T10:41:00.243Z,21.40
2022-09-22T10:43:37.238Z,21.40
2022-09-22T10:46:04.540Z,21.40
2022-09-22T10:48:32.444Z,21.40
2022-09-22T10:51:18.308Z,21.50
2022-09-22T10:53:48.499Z,21.50
2022-09-22T10:56:25.103Z,21.40
2022-09-22T10:58:52.332Z,21.40
2022-09-22T11:01:23.218Z,21.40
2022-09-22T11:04:00.202Z,21.50
2022-09-22T11:07:00.321Z,21.60
2022-09-22T11:09:52.339Z,21.50
2022-09-22T11:12:25.227Z,21.50
2022-09-22T11:14:52.494Z,21.40
2022-09-22T11:17:41.291Z,21.30
2022-09-22T11:20:24.491Z,21.40
2022-09-22T11:22:51.742Z,21.40
2022-09-22T11:25:22.444Z,21.50
2022-09-22T11:27:52.378Z,21.40
2022-09-22T11:30:23.316Z,21.40
2022-09-22T11:32:59.570Z,21.50
2022-09-22T11:35:29.460Z,21.50
2022-09-22T11:37:56.554Z,21.50
2022-09-22T11:40:27.209Z,21.50
2022-09-22T11:43:00.677Z,21.40
2022-09-22T11:45:51.239Z,21.50
2022-09-22T11:48:36.771Z,21.40
2022-09-22T11:51:30.070Z,21.50
2022-09-22T11:54:03.027Z,21.40
2022-09-22T11:56:30.081Z,21.50
2022-09-22T11:58:59.054Z,21.40
2022-09-22T12:01:29.768Z,21.40
2022-09-22T12:04:03.524Z,21.40
2022-09-22T12:06:34.567Z,21.40
2022-09-22T12:09:06.985Z,21.40
2022-09-22T12:11:36.012Z,21.50
2022-09-22T12:14:03.582Z,21.40
2022-09-22T12:16:31.227Z,21.50
2022-09-22T12:19:05.171Z,21.50
2022-09-22T12:21:51.041Z,21.50
2022-09-22T12:24:18.593Z,21.50
2022-09-22T12:26:46.659Z,21.50
2022-09-22T12:29:13.843Z,21.50
2022-09-22T12:31:42.475Z,21.50
2022-09-22T12:34:18.423Z,21.50
2022-09-22T12:36:46.430Z,21.50
2022-09-22T12:39:18.030Z,21.50
2022-09-22T12:41:47.969Z,21.40
2022-09-22T12:44:17.816Z,21.40
2022-09-22T12:46:45.035Z,21.40
2022-09-22T12:49:15.086Z,21.40
2022-09-22T12:51:42.818Z,21.40
2022-09-22T12:54:37.356Z,21.30
2022-09-22T12:57:08.403Z,21.30
2022-09-22T12:59:35.472Z,21.30
2022-09-22T13:02:11.827Z,21.40
2022-09-22T13:04:39.932Z,21.30
2022-09-22T13:07:25.966Z,21.30
2022-09-22T13:10:26.436Z,21.30
2022-09-22T13:13:02.364Z,21.40
2022-09-22T13:15:33.635Z,21.40
2022-09-22T13:18:01.761Z,21.40
2022-09-22T13:20:32.744Z,21.40
2022-09-22T13:23:12.714Z,21.40
2022-09-22T13:25:42.618Z,21.40
2022-09-22T13:28:12.953Z,21.50
2022-09-22T13:30:41.436Z,21.50
2022-09-22T13:33:18.408Z,21.50
2022-09-22T13:35:45.812Z,21.50
2022-09-22T13:38:14.431Z,21.60
2022-09-22T13:40:45.502Z,21.60
2022-09-22T13:43:16.356Z,21.60
2022-09-22T13:45:45.271Z,21.60
2022-09-22T13:48:14.512Z,21.70
2022-09-22T13:50:48.258Z,21.70
2022-09-22T13:53:17.754Z,21.70
2022-09-22T13:55:47.194Z,21.70
2022-09-22T13:58:16.336Z,21.80
2022-09-22T14:01:11.409Z,21.80
2022-09-22T14:03:38.166Z,21.90
2022-09-22T14:06:09.258Z,21.90
2022-09-22T14:08:36.630Z,21.90
2022-09-22T14:11:04.801Z,21.90
2022-09-22T14:13:50.544Z,21.90
2022-09-22T14:16:23.272Z,21.90
2022-09-22T14:18:51.885Z,21.90
2022-09-22T14:21:19.150Z,21.80
2022-09-22T14:23:48.774Z,21.70
2022-09-22T14:26:23.380Z,21.60
2022-09-22T14:28:51.238Z,21.60
2022-09-22T14:31:21.718Z,21.50
2022-09-22T14:33:49.028Z,21.50
2022-09-22T14:36:18.411Z,21.40
2022-09-22T14:38:51.767Z,21.40
2022-09-22T14:41:22.359Z,21.40
2022-09-22T14:43:50.933Z,21.40
2022-09-22T14:46:21.735Z,21.40
2022-09-22T14:48:48.965Z,21.30
2022-09-22T14:51:20.262Z,21.30
2022-09-22T14:53:49.288Z,21.30
2022-09-22T14:56:22.911Z,21.30
2022-09-22T14:58:50.974Z,21.20
2022-09-22T15:01:44.756Z,21.30
2022-09-22T15:04:14.715Z,21.20
2022-09-22T15:06:42.791Z,21.20
2022-09-22T15:09:16.696Z,21.20
2022-09-22T15:11:50.336Z,21.20
2022-09-22T15:14:24.561Z,21.10
2022-09-22T15:16:51.681Z,21.10
2022-09-22T15:19:20.436Z,21.10
2022-09-22T15:21:48.372Z,21.10
2022-09-22T15:24:17.463Z,21.10
2022-09-22T15:26:44.817Z,21.10
2022-09-22T15:29:12.573Z,21.10
2022-09-22T15:31:39.712Z,20.70
2022-09-22T15:34:07.434Z,20.50
2022-09-22T15:36:37.522Z,20.30
2022-09-22T15:39:19.060Z,20.20
2022-09-22T15:41:48.100Z,20.40
2022-09-22T15:44:16.453Z,20.50
2022-09-22T15:46:44.453Z,20.60
2022-09-22T15:49:14.963Z,20.70
2022-09-22T15:51:42.031Z,20.80
2022-09-22T15:54:19.778Z,20.90
2022-09-22T15:56:48.009Z,20.90
2022-09-22T15:59:16.907Z,21.00
2022-09-22T16:01:45.219Z,21.00
2022-09-22T16:04:12.987Z,21.00
2022-09-22T16:06:41.410Z,21.00
2022-09-22T16:09:09.808Z,21.00
2022-09-22T16:11:36.897Z,21.00
2022-09-22T16:14:04.140Z,21.00
2022-09-22T16:16:32.231Z,21.00
2022-09-22T16:19:00.035Z,21.00
2022-09-22T16:21:31.177Z,20.90
2022-09-22T16:24:04.869Z,21.00
2022-09-22T16:26:33.405Z,21.00
2022-09-22T16:29:00.481Z,21.00
2022-09-22T16:31:27.954Z,21.00
2022-09-22T16:33:56.008Z,21.00
2022-09-22T16:36:24.320Z,21.00
2022-09-22T16:38:51.718Z,21.00
2022-09-22T16:41:25.800Z,21.10
2022-09-22T16:43:53.413Z,21.10
2022-09-22T16:46:26.798Z,21.10
2022-09-22T16:49:00.844Z,21.10
2022-09-22T16:51:28.491Z,21.10
2022-09-22T16:53:55.663Z,21.10
2022-09-22T16:56:24.018Z,21.10
2022-09-22T16:58:51.324Z,21.20
2022-09-22T17:01:20.024Z,21.10
2022-09-22T17:03:49.355Z,21.00
2022-09-22T17:06:24.484Z,21.00
2022-09-22T17:08:52.895Z,21.00
2022-09-22T17:11:21.164Z,21.10
2022-09-22T17:13:50.671Z,21.20
2022-09-22T17:16:25.720Z,21.10
2022-09-22T17:18:53.610Z,21.20
2022-09-22T17:21:21.990Z,21.20
2022-09-22T17:23:50.021Z,21.20
2022-09-22T17:26:17.893Z,21.10
2022-09-22T17:28:45.217Z,21.10
2022-09-22T17:31:12.397Z,21.20
2022-09-22T17:33:49.977Z,21.20
2022-09-22T17:36:20.595Z,21.20
2022-09-22T17:38:50.546Z,21.20
2022-09-22T17:41:21.964Z,21.20
2022-09-22T17:43:55.764Z,21.20
2022-09-22T17:46:24.300Z,21.20
2022-09-22T17:49:10.656Z,21.20
2022-09-22T17:51:57.812Z,21.20
2022-09-22T17:54:43.400Z,21.20
2022-09-22T17:57:18.707Z,21.20
2022-09-22T17:59:46.035Z,21.20
2022-09-22T18:02:13.898Z,21.20
2022-09-22T18:04:41.921Z,21.20
2022-09-22T18:07:10.276Z,21.10
2022-09-22T18:09:38.552Z,21.10
2022-09-22T18:12:06.514Z,21.10
2022-09-22T18:14:34.381Z,21.10
2022-09-22T18:17:06.611Z,21.10
2022-09-22T18:19:36.532Z,21.10
2022-09-22T18:22:06.146Z,21.10
2022-09-22T18:24:37.142Z,21.10
2022-09-22T18:27:05.468Z,21.10
2022-09-22T18:29:32.726Z,21.10
2022-09-22T18:32:00.270Z,21.10
2022-09-22T18:34:31.103Z,21.10
2022-09-22T18:37:03.794Z,21.10
2022-09-22T18:39:35.229Z,21.10
2022-09-22T18:42:02.363Z,20.80
2022-09-22T18:44:29.514Z,20.40
2022-09-22T18:47:01.114Z,20.40
2022-09-22T18:49:31.914Z,20.50
2022-09-22T18:52:01.437Z,20.50
2022-09-22T18:54:30.649Z,20.60
2022-09-22T18:56:57.886Z,20.70
2022-09-22T18:59:26.179Z,20.70
2022-09-22T19:01:53.540Z,20.80
2022-09-22T19:04:21.743Z,20.80
2022-09-22T19:07:08.897Z,20.80
2022-09-22T19:09:36.386Z,20.80
2022-09-22T19:12:07.935Z,20.90
2022-09-22T19:14:39.172Z,20.90
2022-09-22T19:17:07.279Z,20.90
2022-09-22T19:19:37.003Z,20.90
2022-09-22T19:22:08.278Z,20.90
2022-09-22T19:24:36.161Z,20.90
2022-09-22T19:27:04.647Z,20.90
2022-09-22T19:29:32.733Z,20.90
2022-09-22T19:32:00.380Z,20.90
2022-09-22T19:34:28.091Z,20.90
2022-09-22T19:36:55.602Z,20.80
2022-09-22T19:39:23.063Z,20.80
2022-09-22T19:41:50.458Z,20.80
2022-09-22T19:44:18.728Z,20.80
2022-09-22T19:46:47.565Z,20.80
2022-09-22T19:49:15.228Z,20.80
2022-09-22T19:51:45.260Z,20.80
2022-09-22T19:54:12.403Z,20.80
2022-09-22T19:56:39.795Z,20.80
2022-09-22T19:59:09.881Z,20.80
2022-09-22T20:01:39.354Z,20.80
2022-09-22T20:04:07.095Z,20.80
2022-09-22T20:06:34.553Z,20.80
2022-09-22T20:09:04.710Z,20.80
2022-09-22T20:11:36.275Z,20.70
2022-09-22T20:14:22.346Z,20.70
2022-09-22T20:16:51.145Z,20.70
2022-09-22T20:19:18.413Z,20.70
2022-09-22T20:21:45.664Z,20.70
2022-09-22T20:24:14.092Z,20.70
2022-09-22T20:26:42.211Z,20.70
2022-09-22T20:29:09.671Z,20.70
2022-09-22T20:31:36.922Z,20.70
2022-09-22T20:34:05.634Z,20.70
2022-09-22T20:36:36.901Z,20.70
2022-09-22T20:39:05.634Z,20.70
2022-09-22T20:41:32.776Z,20.70
2022-09-22T20:44:00.101Z,20.70
2022-09-22T20:46:27.423Z,20.70
2022-09-22T20:48:56.999Z,20.70
2022-09-22T20:51:24.094Z,20.70
2022-09-22T20:53:51.299Z,20.70
2022-09-22T20:56:18.340Z,20.70
2022-09-22T20:58:46.126Z,20.70
2022-09-22T21:01:14.672Z,20.70
2022-09-22T21:03:41.954Z,20.60
2022-09-22T21:06:09.967Z,20.70
2022-09-22T21:08:56.304Z,20.60
2022-09-22T21:11:23.617Z,20.60
2022-09-22T21:13:55.611Z,20.60
2022-09-22T21:16:22.813Z,20.60
2022-09-22T21:18:51.557Z,20.60
2022-09-22T21:21:19.751Z,20.60
2022-09-22T21:23:48.736Z,20.60
2022-09-22T21:26:16.564Z,20.60
2022-09-22T21:28:44.182Z,20.60
2022-09-22T21:31:13.772Z,20.60
2022-09-22T21:33:40.951Z,20.60
2022-09-22T21:36:13.895Z,20.60
2022-09-22T21:38:42.106Z,20.60
2022-09-22T21:41:10.859Z,20.60
2022-09-22T21:43:38.320Z,20.60
2022-09-22T21:46:10.629Z,20.60
2022-09-22T21:48:37.872Z,20.60
2022-09-22T21:51:06.108Z,20.60
2022-09-22T21:53:33.979Z,20.60
2022-09-22T21:56:04.371Z,20.60
2022-09-22T21:58:33.291Z,20.60
2022-09-22T22:01:05.169Z,20.60
2022-09-22T22:03:32.747Z,20.60
2022-09-22T22:06:09.110Z,20.60
2022-09-22T22:08:50.280Z,20.60
2022-09-22T22:11:19.215Z,20.60
2022-09-22T22:13:46.956Z,20.60
2022-09-22T22:16:14.138Z,20.60
2022-09-22T22:18:41.578Z,20.60
2022-09-22T22:21:09.956Z,20.50
2022-09-22T22:23:38.790Z,20.60
2022-09-22T22:26:13.508Z,20.50
2022-09-22T22:28:41.038Z,20.50
2022-09-22T22:31:11.237Z,20.50
2022-09-22T22:33:39.262Z,20.50
2022-09-22T22:36:09.891Z,20.50
2022-09-22T22:38:38.064Z,20.50
2022-09-22T22:41:15.279Z,20.50
2022-09-22T22:43:42.964Z,20.50
2022-09-22T22:46:11.447Z,20.50
2022-09-22T22:48:38.567Z,20.50
2022-09-22T22:51:07.528Z,20.50
2022-09-22T22:53:35.929Z,20.50
2022-09-22T22:56:04.918Z,20.50
2022-09-22T22:58:33.432Z,20.50
2022-09-22T23:01:04.267Z,20.50
2022-09-22T23:03:31.377Z,20.50
2022-09-22T23:05:59.843Z,20.50
2022-09-22T23:08:27.337Z,20.50
2022-09-22T23:11:04.910Z,20.50
2022-09-22T23:13:32.872Z,20.50
2022-09-22T23:16:10.263Z,20.50
2022-09-22T23:18:38.959Z,20.50
2022-09-22T23:21:06.303Z,20.50
2022-09-22T23:23:33.546Z,20.40
2022-09-22T23:26:01.546Z,20.40
2022-09-22T23:28:30.011Z,20.40
2022-09-22T23:31:00.462Z,20.40
2022-09-22T23:33:28.810Z,20.40
2022-09-22T23:35:56.539Z,20.40
2022-09-22T23:38:26.206Z,20.40
2022-09-22T23:40:53.627Z,20.40
2022-09-22T23:43:22.323Z,20.40
2022-09-22T23:45:50.018Z,20.40
2022-09-22T23:48:18.355Z,20.40
2022-09-22T23:50:49.674Z,20.40
2022-09-22T23:53:17.687Z,20.40
2022-09-22T23:55:44.822Z,20.40
2022-09-22T23:58:14.248Z,20.40
